SÍGUENOS

APP INUMET

Disponible en Google Play

Productos aeronáuticos

  • SIGMET
  • METAR / SPECI
  • TAF
  • AIREP
  • Aviso de aeródromo
  • Pronárea
  • Carta superficie
Fecha : 25/09/2017
FTUY 03 SUMU 25 11 30
SUMU TAF 251100Z 2512/2612 03008KT 9999 FEW030 BKN070 TX22/2518Z TN13/2610Z BECMG 2514/2519 14010KT=
SULS TAF 251100Z 2512/2612 03008KT 9999 FEW030 BKN070 TX22/2518Z TN13/2610Z BECMG 2514/2519 14010KT=
SUAA TAF 251100Z 2512/2612 03008KT 9999 FEW030 BKN070 TX22/2518Z TN13/2610Z BECMG 2514/2519 14010KT=
SUCA TAF 251100Z 2512/2612 03008KT 9999 FEW030 BKN070 TX22/2518Z TN13/2610Z BECMG 2514/2519 14010KT=
SUDU TAF 251100Z 2512/2612 10008KT 9999 BKN010 BKN090 TX27/2518Z TN15/2610Z TEMPO 2512/2518 5000 RA BKN015 OVC070=
SUSO TAF 251100Z 2512/2612 10008KT 9999 BKN010 BKN090 TX27/2518Z TN15/2610Z TEMPO 2512/2518 5000 RA BKN015 OVC070=
SURV TAF 251100Z 2512/2612 10008KT 9999 BKN010 BKN090 TX27/2518Z TN15/2610Z TEMPO 2512/2518 5000 RA BKN015 OVC070=

Predictor :


Mensajes TAF vigentes - Internacionales


Argentina
TAF SAAR 251100Z 2512/2612 18005KT 7000 NSC TX26/2519Z TN16/2610Z BECMG 2513/2514 9999 SCT030 BECMG 2502/2505 12010KT 9999 BKN020
TAF SABE 251100Z 2512/2612 11010KT CAVOK TX22/2519Z TN14/2610Z BECMG 2500/2603 14010KT 9999 OVC025
TAF SAEZ 251100Z 2512/2612 12003KT CAVOK TX25/2518Z TN13/2610Z BECMG 2515/2518 9999 SCT030 FEW050 PROB40 2600/2606 14010KT 2000 DZBR BKN008 BKN020 BECMG 2606/2609 12015KT 5000 RADZ BR BKN010 OVC030
TAF SAME 251100Z 2512/2612 14010KT 9999 FEW040 SCT100 TX25/2520Z TN11/2610Z
TAF SACO 251100Z 2512/2612 07010KT 9999 SCT030 TX28/2518Z TN13/2610Z
Bolivia
TAF SLLP 251000Z 2512/2612 12006KT 9999 FEW015 TX17/2520Z TN01/2610Z TEMPO 2518/2522 05012KT 8000 VCTSSH SCT017 FEW020CB TEMPO 2606/2610 4000E VCFG FEW002 SCT013
Brasil
TAF SBGR 251008Z 2512/2618 11007KT 9999 SCT030 TX26/2518Z TN13/2609Z BECMG 2518/2520 15010KT PROB40 2522/2602 6000 BKN013 BECMG 2602/2604 08005KT CAVOK PROB30 2607/2611 9000 BKN009 BECMG 2613/2615 12010KT PROB30 2616/2618 8000 SHRA BKN030 FEW035TCU RMK PHM
TAF SBSP 251008Z 2512/2612 12005KT 9999 SCT030 TX26/2517Z TN15/2609Z BECMG 2517/2519 15010KT PROB30 2522/2602 6000 BKN012 BECMG 2602/2604 08005KT CAVOK PROB30 2607/2611 8000 BKN008 RMK PHM
TAF SBFL 250930Z 2512/2612 28005KT 9999 BKN025 TX23/2517Z TN18/2608Z BECMG 2513/2515 01007KT BKN030 BECMG 2515/2517 SCT035 BECMG 2600/2602 BKN0 30 BECMG 2606/2608 BKN025 RMK PER
TAF SBPA 250930Z 2512/2612 11005KT CAVOK TX30/2518Z TN17/2608Z BECMG 2514/2516 12010KT BECMG 2522/2524 12005KT 9999 SCT010 PROB30 2608/2610 2000 BR BKN004 RMK PER
TAF SBFI 250930Z 2512/2612 11007KT CAVOK TX31/2518Z TN21/2608Z RMK PE R
TAF SBBR 250800Z 2512/2612 03007KT CAVOK TX29/2519Z TN15/2608Z BECMG 2518/2520 11008KT 7000 FEW040 BECMG 2600/2602 12005KT CAVOK BECMG 2606/2608 13 005KT RMK PDE
TAF SBRJ 250800Z 2512/2524 14005KT CAVOK TX28/2518Z TN21/2523Z BECMG 2514/2516 16010KT BECMG 2521/2523 21005KT FEW025 RMK PGY
Chile
TAF SCCI 251050Z 2512/2612 25017KT 9000 FEW020 SCT040 TN02/2512Z TX08/2519Z BECMG 2512/2514 26023G36KT BECMG 2520/2522 BKN035 BECMG 2602/2604 29020KT TEMPO 2605/2612 29025G40KT 9000 SCT020 BKN035
TAF SCEL 251014Z 2512/2612 VRB03KT CAVOK TX22/2518Z TN06/2610Z TEMPO 2512/2514 7000 NSC BECMG 2516/2518 18008KT BECMG 2521/2523 BKN170 BECMG 2601/2603 VRB02KT
Ecuador
SEQM 250830Z 2512/2612 VRB03KT 9999 SCT026 BKN100 FM251800 35014KT 9999 BKN026 SCT100 FM260100 04004KT 9999 FEW016 BKN020 TX24/2519Z TN11/2611Z
EEUU
KLGA 251307Z 2513/2612 06004KT P6SM SKC FM251800 11007KT P6SM FEW250 FM252200 13008KT P6SM FEW250 FM260300 14003KT 5SM BR SCT008 SCT250 FM260700 06004KT 2SM BR BKN008
KJFK 251307Z 2513/2618 14004KT P6SM SKC FM251800 12009KT P6SM FEW250 FM260200 13004KT 5SM BR SCT008 SCT250 FM260600 06004KT 2SM BR BKN007 FM261400 06005KT P6SM SCT010
KMIA 251131Z 2512/2612 00000KT P6SM FEW040 FEW060 SCT250 FM251400 32005KT P6SM FEW030 FM251900 16010KT P6SM VCSH SCT035 PROB30 2521/2524 4SM SHRA SCT015 BKN025 FM260000 VRB03KT P6SM FEW025
KDCA 251128Z 2512/2612 VRB03KT P6SM SCT250 FM251900 08007KT P6SM FEW050 FEW250 FM260500 VRB03KT P6SM FEW040 SCT250
KIAD 251128Z 2512/2618 VRB03KT P6SM FEW250 FM252000 08007KT P6SM FEW060 SCT250 FM260400 VRB03KT P6SM FEW045 SCT250
Francia
TAF LFPO 251100Z 2512/2618 VRB02KT CAVOK PROB30 TEMPO 2516/2524 -SHRA BKN040 PROB40 TEMPO 2604/2611 -RA BKN009 BKN014 PROB30 TEMPO 2607/2609 3000 RA BKN004 BECMG 2612/2614 SCT020 PROB30 TEMPO 2613/2615 -SHRA BKN020
Paraguay
TAF SGAS 251049Z 2512/2612 07003KT CAVOK TX31/2519Z TN21/2610Z BECMG 2514/2517 9999 BKN027 PROB40 2518/2520 10012KT 6000 TSRA BKN020 FEW040CB BECMG 2521/2523 VRB06KT 9999 BKN030
Venezuela
TAF SVMI 251000Z 2512/2612 05005KT 9999 SCT013 TX34/18Z TN25/09Z BECMG 2512/2516 07005KT SCT016

* Datos extraidos del Text DataServer de la NOAA (NOAA TEXT DATA SERVER)

Instituto Uruguayo de Meteorología

Dr. Javier Barrios Amorín 1488 - CP 11200
Mesa Central (598) 1895

Montevideo - Uruguay